Time;durP1;ratioP1;P1;durP2;ratioP2;P2;SDS_P1;SDS_P2;PMS_P1;PMS_P2;Temp;Humidity;BMP_temperature;BMP_pressure;BME280_temperature;BME280_humidity;BME280_pressure;Samples;Min_cycle;Max_cycle;Signal;HPM_P1;HPM_P2
2021/11/15 00:00:09;;;;;;;47.50;23.10;;;11.00;99.90;;;;;;5099116;28;20271;-73
2021/11/15 00:02:40;;;;;;;47.03;22.77;;;11.00;99.90;;;;;;5104398;28;20181;-73
2021/11/15 00:05:06;;;;;;;43.38;21.20;;;11.00;99.90;;;;;;5103696;28;20185;-73
2021/11/15 00:07:32;;;;;;;42.05;20.33;;;11.00;99.90;;;;;;5107525;28;20296;-73
2021/11/15 00:09:58;;;;;;;41.40;20.90;;;11.00;99.90;;;;;;5109264;28;20182;-73
2021/11/15 00:12:23;;;;;;;44.30;23.43;;;10.90;99.90;;;;;;5100197;28;20414;-73
2021/11/15 00:14:49;;;;;;;42.55;23.08;;;11.50;99.90;;;;;;5107803;28;20412;-73
2021/11/15 00:17:15;;;;;;;44.63;24.50;;;11.80;99.90;;;;;;5089103;28;20404;-73
2021/11/15 00:19:41;;;;;;;43.22;24.17;;;12.00;99.90;;;;;;5098874;28;20435;-72
2021/11/15 00:22:07;;;;;;;46.25;25.58;;;12.10;99.90;;;;;;5068096;28;20434;-73
2021/11/15 00:24:32;;;;;;;45.83;25.23;;;12.20;99.90;;;;;;5098302;28;20414;-72
2021/11/15 00:26:59;;;;;;;46.13;25.45;;;12.20;99.90;;;;;;5084743;28;20983;-72
2021/11/15 00:29:25;;;;;;;44.35;23.65;;;12.30;99.90;;;;;;5073923;28;20771;-72
2021/11/15 00:31:51;;;;;;;47.27;24.43;;;12.40;99.90;;;;;;5104926;28;20399;-73
2021/11/15 00:34:16;;;;;;;46.53;25.65;;;12.40;99.90;;;;;;5083333;28;20409;-73
2021/11/15 00:36:42;;;;;;;42.72;23.70;;;12.40;99.90;;;;;;5085395;28;20919;-72
2021/11/15 00:39:08;;;;;;;48.77;24.00;;;12.40;99.90;;;;;;5105547;28;20492;-74
2021/11/15 00:41:34;;;;;;;43.85;24.25;;;12.50;99.90;;;;;;5101934;28;20435;-73
2021/11/15 00:44:00;;;;;;;44.88;24.88;;;12.50;99.90;;;;;;5107061;28;20412;-73
2021/11/15 00:46:25;;;;;;;46.17;24.70;;;12.50;99.90;;;;;;5086058;28;20447;-72
2021/11/15 00:48:55;;;;;;;48.00;24.83;;;12.50;99.90;;;;;;5106293;28;20509;-72
2021/11/15 00:51:23;;;;;;;45.28;24.15;;;12.50;99.90;;;;;;5069065;28;20765;-75
2021/11/15 00:53:48;;;;;;;46.13;25.13;;;12.50;99.90;;;;;;5104305;28;20416;-73
2021/11/15 00:56:14;;;;;;;49.13;25.60;;;12.60;99.90;;;;;;5103856;28;20541;-74
2021/11/15 00:58:41;;;;;;;44.33;26.00;;;12.60;99.90;;;;;;5088316;28;20472;-72
2021/11/15 01:01:06;;;;;;;47.43;26.70;;;12.60;99.90;;;;;;5105588;28;20975;-74
2021/11/15 01:03:32;;;;;;;48.50;26.30;;;12.60;99.90;;;;;;5104048;28;20934;-74
2021/11/15 01:05:59;;;;;;;53.57;27.47;;;12.60;99.90;;;;;;5100438;28;21116;-75
2021/11/15 01:08:26;;;;;;;53.50;27.52;;;12.60;99.90;;;;;;5103871;28;20892;-74
2021/11/15 01:10:52;;;;;;;52.57;28.67;;;12.60;99.90;;;;;;5102117;28;20409;-72
2021/11/15 01:13:19;;;;;;;50.63;27.87;;;12.60;99.90;;;;;;5085445;28;20504;-73
2021/11/15 01:15:45;;;;;;;53.13;28.20;;;12.60;99.90;;;;;;5080414;28;20420;-75
2021/11/15 01:18:11;;;;;;;51.75;27.75;;;12.60;99.90;;;;;;5097790;28;20412;-73
2021/11/15 01:20:37;;;;;;;56.72;29.15;;;12.60;99.90;;;;;;5085343;28;21031;-73
2021/11/15 01:23:04;;;;;;;52.13;27.65;;;12.60;99.90;;;;;;5103655;28;20423;-73
2021/11/15 01:25:30;;;;;;;50.90;25.95;;;12.60;99.90;;;;;;5095699;28;20427;-73
2021/11/15 01:27:56;;;;;;;45.53;25.67;;;12.60;99.90;;;;;;5080751;28;20423;-73
2021/11/15 01:30:23;;;;;;;47.93;25.93;;;12.60;99.90;;;;;;5079434;28;20404;-72
2021/11/15 01:32:49;;;;;;;46.85;25.55;;;12.60;99.90;;;;;;5075483;28;20911;-73
2021/11/15 01:35:15;;;;;;;49.25;26.00;;;12.60;99.90;;;;;;5103385;28;20408;-75
2021/11/15 01:37:41;;;;;;;44.05;24.33;;;12.50;99.90;;;;;;5103264;28;20468;-73
2021/11/15 01:40:12;;;;;;;46.15;25.90;;;12.50;99.90;;;;;;5085480;28;20421;-72
2021/11/15 01:42:38;;;;;;;48.25;25.38;;;12.50;99.90;;;;;;5081698;28;20417;-73
2021/11/15 01:45:06;;;;;;;42.25;23.67;;;12.50;99.90;;;;;;5084101;28;20413;-72
2021/11/15 01:47:32;;;;;;;43.65;24.13;;;12.50;99.90;;;;;;5079979;28;20997;-72
2021/11/15 01:49:58;;;;;;;42.83;24.13;;;12.50;99.90;;;;;;5084523;28;20431;-73
2021/11/15 01:52:24;;;;;;;39.45;22.75;;;12.50;99.90;;;;;;5065384;28;20410;-73
2021/11/15 01:54:50;;;;;;;45.15;24.10;;;12.50;99.90;;;;;;5081912;28;20841;-73
2021/11/15 01:57:18;;;;;;;42.88;23.27;;;12.50;99.90;;;;;;5083389;28;20416;-73
2021/11/15 01:59:46;;;;;;;40.45;22.85;;;12.50;99.90;;;;;;5083009;28;20425;-72
2021/11/15 02:02:12;;;;;;;41.05;22.38;;;12.50;99.90;;;;;;5079888;28;20464;-73
2021/11/15 02:04:38;;;;;;;46.43;23.63;;;12.50;99.90;;;;;;5081246;28;20414;-72
2021/11/15 02:07:04;;;;;;;42.45;23.10;;;12.40;99.90;;;;;;5081827;28;21474;-73
2021/11/15 02:09:30;;;;;;;45.50;24.05;;;12.40;99.90;;;;;;5083549;28;20503;-74
2021/11/15 02:11:57;;;;;;;43.60;24.70;;;12.40;99.90;;;;;;5083024;28;20417;-74
2021/11/15 02:14:23;;;;;;;43.08;23.55;;;12.40;99.90;;;;;;5083310;28;20970;-74
2021/11/15 02:16:49;;;;;;;44.05;24.10;;;12.40;99.90;;;;;;5079224;28;20414;-73
2021/11/15 02:19:15;;;;;;;45.42;24.60;;;12.40;99.90;;;;;;5064842;28;20910;-74
2021/11/15 02:21:40;;;;;;;45.33;23.93;;;12.40;99.90;;;;;;5079848;28;20424;-73
2021/11/15 02:24:06;;;;;;;44.80;24.25;;;12.40;99.90;;;;;;5084249;28;20406;-74
2021/11/15 02:26:32;;;;;;;44.70;23.77;;;12.40;99.90;;;;;;5080574;28;20805;-74
2021/11/15 02:28:58;;;;;;;45.83;25.15;;;12.50;99.90;;;;;;5079485;28;21005;-73
2021/11/15 02:31:28;;;;;;;46.33;24.57;;;12.50;99.90;;;;;;5080509;28;20409;-74
2021/11/15 02:33:56;;;;;;;47.63;25.05;;;12.40;99.90;;;;;;5098167;28;20402;-74
2021/11/15 02:36:24;;;;;;;46.38;24.70;;;12.50;99.90;;;;;;5076097;28;20412;-74
2021/11/15 02:38:52;;;;;;;45.28;24.13;;;12.50;99.90;;;;;;5065866;28;20505;-75
2021/11/15 02:41:20;;;;;;;43.58;24.17;;;12.50;99.90;;;;;;5080538;28;20446;-74
2021/11/15 02:43:46;;;;;;;43.22;23.45;;;12.40;99.90;;;;;;5060869;28;20517;-75
2021/11/15 02:46:12;;;;;;;42.65;23.30;;;12.40;99.90;;;;;;5082502;28;20501;-74
2021/11/15 02:48:38;;;;;;;42.27;23.47;;;12.40;99.90;;;;;;5081409;28;20444;-75
2021/11/15 02:51:04;;;;;;;38.42;23.05;;;12.40;99.90;;;;;;5083166;28;20493;-75
2021/11/15 02:53:29;;;;;;;40.15;23.15;;;12.40;99.90;;;;;;5082008;28;20415;-74
2021/11/15 02:55:55;;;;;;;44.50;23.60;;;12.40;99.90;;;;;;5079391;28;20825;-73
2021/11/15 02:58:21;;;;;;;41.60;22.25;;;12.40;99.90;;;;;;5082429;28;20413;-73
2021/11/15 03:00:57;;;;;;;42.25;22.83;;;12.30;99.90;;;;;;5080566;28;20484;-73
2021/11/15 03:03:24;;;;;;;39.58;23.08;;;12.40;99.90;;;;;;5078718;28;20983;-73
2021/11/15 03:05:52;;;;;;;41.72;22.67;;;12.40;99.90;;;;;;5079593;28;20921;-73
2021/11/15 03:08:20;;;;;;;39.30;22.45;;;12.40;99.90;;;;;;5096271;28;20424;-73
2021/11/15 03:10:47;;;;;;;38.93;22.77;;;12.40;99.90;;;;;;5082210;28;20413;-73
2021/11/15 03:13:15;;;;;;;35.78;20.77;;;12.40;99.90;;;;;;5082287;28;20406;-72
2021/11/15 03:15:44;;;;;;;38.92;22.10;;;12.30;99.90;;;;;;5083403;28;20409;-74
2021/11/15 03:18:19;;;;;;;36.63;21.25;;;12.30;99.90;;;;;;5081628;28;20409;-72
2021/11/15 03:20:52;;;;;;;36.08;21.52;;;12.30;99.90;;;;;;5098381;28;20890;-75
2021/11/15 03:23:21;;;;;;;36.40;21.45;;;12.30;99.90;;;;;;5091885;28;20417;-73
2021/11/15 03:25:47;;;;;;;40.60;22.25;;;12.30;99.90;;;;;;5077703;28;20419;-72
2021/11/15 03:28:16;;;;;;;37.78;21.88;;;12.30;99.90;;;;;;5081137;28;20419;-73
2021/11/15 03:30:43;;;;;;;36.53;20.73;;;12.30;99.90;;;;;;5082593;28;20403;-73
2021/11/15 03:33:10;;;;;;;39.90;21.73;;;12.30;99.90;;;;;;5080837;28;20752;-72
2021/11/15 03:35:38;;;;;;;36.85;21.25;;;12.30;99.90;;;;;;5066149;28;20421;-72
2021/11/15 03:38:05;;;;;;;32.53;20.43;;;12.30;99.90;;;;;;5078419;28;20560;-74
2021/11/15 03:40:31;;;;;;;31.90;19.92;;;12.20;99.90;;;;;;5094755;28;20602;-73
2021/11/15 03:43:00;;;;;;;35.05;20.55;;;12.20;99.90;;;;;;5088308;28;22414;-72
2021/11/15 03:45:28;;;;;;;30.27;19.48;;;12.20;99.90;;;;;;5106459;28;20400;-73
2021/11/15 03:47:54;;;;;;;29.20;19.40;;;12.20;99.90;;;;;;5105942;28;20900;-74
2021/11/15 03:50:20;;;;;;;32.47;19.67;;;12.20;99.90;;;;;;5097448;28;20404;-73
2021/11/15 03:52:46;;;;;;;31.02;19.10;;;12.20;99.90;;;;;;5105993;28;20474;-73
2021/11/15 03:55:16;;;;;;;31.88;20.00;;;12.20;99.90;;;;;;5096866;28;20915;-74
2021/11/15 03:57:42;;;;;;;30.63;19.42;;;12.20;99.90;;;;;;5104693;28;20908;-74
2021/11/15 04:00:10;;;;;;;29.02;18.73;;;12.20;99.90;;;;;;5105562;28;21040;-73
2021/11/15 04:02:42;;;;;;;29.58;18.45;;;12.20;99.90;;;;;;5104882;28;20896;-73
2021/11/15 04:05:09;;;;;;;27.67;17.73;;;12.20;99.90;;;;;;5089172;28;20949;-74
2021/11/15 04:07:39;;;;;;;26.33;17.08;;;12.20;99.90;;;;;;5106360;28;20418;-73
2021/11/15 04:10:16;;;;;;;25.77;17.83;;;12.20;99.90;;;;;;5090142;28;20441;-73
2021/11/15 04:12:42;;;;;;;29.53;19.37;;;12.20;99.70;;;;;;5106245;28;20798;-73
2021/11/15 04:15:09;;;;;;;28.70;18.90;;;12.20;99.40;;;;;;5088020;28;21260;-73
2021/11/15 04:17:35;;;;;;;24.83;18.50;;;12.20;99.30;;;;;;5087969;28;20495;-73
2021/11/15 04:20:02;;;;;;;25.48;17.63;;;12.20;99.30;;;;;;5105635;28;20959;-73
2021/11/15 04:22:27;;;;;;;24.38;17.50;;;12.20;99.30;;;;;;5087282;28;21130;-72
2021/11/15 04:24:53;;;;;;;27.80;18.90;;;12.20;99.40;;;;;;5107644;28;20427;-72
2021/11/15 04:27:19;;;;;;;27.03;18.97;;;12.20;99.40;;;;;;5105655;28;20884;-73
2021/11/15 04:29:44;;;;;;;29.27;19.15;;;12.20;99.00;;;;;;5104555;28;20419;-73
2021/11/15 04:32:10;;;;;;;27.20;19.20;;;12.20;99.30;;;;;;5104620;28;20407;-72
2021/11/15 04:34:37;;;;;;;28.58;19.15;;;12.20;99.10;;;;;;5104862;28;20914;-72
2021/11/15 04:37:03;;;;;;;31.42;20.10;;;12.20;99.30;;;;;;5088066;28;20911;-75
2021/11/15 04:39:32;;;;;;;27.77;19.73;;;12.20;99.50;;;;;;5112853;27;20468;-73
2021/11/15 04:41:58;;;;;;;29.20;20.52;;;12.20;99.30;;;;;;5103935;28;21009;-72
2021/11/15 04:44:23;;;;;;;29.25;21.00;;;12.20;99.50;;;;;;5088519;28;20419;-73
2021/11/15 04:46:49;;;;;;;32.23;21.23;;;12.20;99.70;;;;;;5104025;28;20419;-73
2021/11/15 04:49:14;;;;;;;30.20;20.58;;;12.20;99.70;;;;;;5079345;28;20905;-72
2021/11/15 04:51:40;;;;;;;30.30;21.13;;;12.20;99.80;;;;;;5103677;28;20408;-73
2021/11/15 04:54:06;;;;;;;30.30;20.77;;;12.20;99.80;;;;;;5104726;28;20418;-73
2021/11/15 04:56:32;;;;;;;29.55;20.90;;;12.20;99.70;;;;;;5083593;28;20510;-73
2021/11/15 04:58:58;;;;;;;30.35;20.38;;;12.20;99.90;;;;;;5106741;28;20490;-73
2021/11/15 05:01:24;;;;;;;27.98;19.63;;;12.20;99.90;;;;;;5080590;28;20447;-72
2021/11/15 05:03:49;;;;;;;28.37;19.50;;;12.20;99.90;;;;;;5107340;28;20444;-73
2021/11/15 05:06:16;;;;;;;26.13;18.40;;;12.20;99.90;;;;;;5085856;28;20412;-72
2021/11/15 05:08:41;;;;;;;26.98;17.92;;;12.20;99.90;;;;;;5105720;28;20493;-72
2021/11/15 05:11:07;;;;;;;24.40;17.30;;;12.10;99.90;;;;;;5083389;28;20758;-72
2021/11/15 05:13:33;;;;;;;23.80;16.40;;;12.10;99.90;;;;;;5087339;28;20411;-72
2021/11/15 05:15:58;;;;;;;23.60;15.73;;;12.10;99.90;;;;;;5101516;28;20416;-71
2021/11/15 05:18:24;;;;;;;23.23;15.73;;;12.10;99.90;;;;;;5095974;28;20412;-71
2021/11/15 05:20:50;;;;;;;21.83;15.38;;;12.10;99.80;;;;;;5101916;28;20473;-72
2021/11/15 05:23:16;;;;;;;22.27;15.10;;;12.00;99.80;;;;;;5084544;28;20420;-72
2021/11/15 05:25:42;;;;;;;22.23;15.02;;;12.00;99.90;;;;;;5093595;28;20959;-74
2021/11/15 05:28:09;;;;;;;19.42;14.48;;;12.10;99.80;;;;;;5102879;28;21091;-75
2021/11/15 05:30:34;;;;;;;20.65;14.95;;;12.00;99.70;;;;;;5079045;28;20902;-73
2021/11/15 05:33:00;;;;;;;22.38;14.88;;;12.10;99.70;;;;;;5101878;28;20403;-73
2021/11/15 05:35:26;;;;;;;20.95;15.35;;;12.00;99.50;;;;;;5082211;28;20959;-75
2021/11/15 05:37:54;;;;;;;22.30;14.93;;;12.00;99.80;;;;;;5096517;28;20414;-74
2021/11/15 05:40:20;;;;;;;22.55;14.70;;;12.00;99.90;;;;;;5102771;28;20455;-74
2021/11/15 05:42:46;;;;;;;21.70;14.55;;;12.00;99.90;;;;;;5084983;28;20963;-74
2021/11/15 05:45:12;;;;;;;20.60;14.57;;;12.00;99.90;;;;;;5099083;28;20507;-74
2021/11/15 05:47:40;;;;;;;20.43;13.90;;;12.00;99.70;;;;;;5094835;28;20843;-74
2021/11/15 05:50:08;;;;;;;21.23;13.57;;;12.00;99.90;;;;;;5081537;28;22502;-75
2021/11/15 05:52:39;;;;;;;18.13;13.30;;;12.00;99.80;;;;;;5084912;28;20404;-74
2021/11/15 05:55:05;;;;;;;17.88;13.00;;;12.00;99.90;;;;;;5105184;28;20942;-74
2021/11/15 05:57:31;;;;;;;19.33;13.10;;;12.00;99.90;;;;;;5096385;28;20988;-74
2021/11/15 05:59:57;;;;;;;16.92;12.52;;;11.90;99.90;;;;;;5071818;28;20406;-73
2021/11/15 06:02:23;;;;;;;17.73;13.07;;;11.90;99.90;;;;;;5100598;28;20447;-73
2021/11/15 06:04:48;;;;;;;19.85;13.52;;;11.90;99.90;;;;;;5082601;28;21210;-73
2021/11/15 06:07:14;;;;;;;19.73;13.60;;;11.90;99.90;;;;;;5100655;28;20412;-73
2021/11/15 06:09:40;;;;;;;17.23;13.43;;;11.90;99.90;;;;;;5090550;28;20412;-74
2021/11/15 06:12:06;;;;;;;17.03;12.53;;;11.90;99.60;;;;;;5102868;28;20757;-74
2021/11/15 06:14:32;;;;;;;17.88;12.73;;;11.90;99.70;;;;;;5100663;28;20796;-73
2021/11/15 06:16:57;;;;;;;16.63;12.57;;;11.90;99.90;;;;;;5097894;28;20412;-74
2021/11/15 06:19:23;;;;;;;18.30;13.43;;;11.90;99.90;;;;;;5102853;28;20424;-75
2021/11/15 06:21:49;;;;;;;16.30;12.25;;;11.90;99.90;;;;;;5080866;28;20415;-75
2021/11/15 06:24:15;;;;;;;15.97;12.37;;;11.90;99.90;;;;;;5076285;28;20502;-73
2021/11/15 06:26:40;;;;;;;15.27;12.13;;;11.80;99.90;;;;;;5065317;28;20419;-74
2021/11/15 06:29:06;;;;;;;16.03;12.10;;;11.80;99.90;;;;;;5083631;28;20411;-73
2021/11/15 06:31:32;;;;;;;16.23;11.35;;;11.80;99.80;;;;;;5081919;28;20963;-75
2021/11/15 06:33:57;;;;;;;16.37;12.60;;;11.80;99.90;;;;;;5081118;28;21265;-74
2021/11/15 06:36:23;;;;;;;17.27;12.87;;;11.80;99.80;;;;;;5078086;28;20920;-74
2021/11/15 06:38:50;;;;;;;17.70;13.23;;;11.80;99.50;;;;;;5076833;28;20424;-74
2021/11/15 06:41:16;;;;;;;18.50;13.35;;;11.80;99.50;;;;;;5069141;28;20422;-76
2021/11/15 06:43:41;;;;;;;19.27;13.60;;;11.80;99.70;;;;;;5082444;28;21025;-74
2021/11/15 06:46:07;;;;;;;16.60;12.80;;;11.80;99.90;;;;;;5074994;28;20413;-74
2021/11/15 06:48:40;;;;;;;17.20;12.37;;;11.80;99.90;;;;;;5079444;28;20410;-74
2021/11/15 06:51:07;;;;;;;17.73;12.30;;;11.80;99.90;;;;;;5096116;28;20402;-74
2021/11/15 06:53:33;;;;;;;16.40;12.63;;;11.80;99.80;;;;;;5073016;28;20491;-76
2021/11/15 06:56:02;;;;;;;17.55;12.35;;;11.80;99.70;;;;;;5083968;28;20417;-75
2021/11/15 06:58:27;;;;;;;16.17;12.50;;;11.80;99.60;;;;;;5081192;28;20766;-75
2021/11/15 07:00:54;;;;;;;17.43;12.80;;;11.90;99.60;;;;;;5078749;28;20436;-75
2021/11/15 07:03:20;;;;;;;16.93;13.23;;;11.80;99.80;;;;;;5081734;28;20417;-73
2021/11/15 07:05:45;;;;;;;21.33;15.13;;;11.80;99.50;;;;;;5079637;28;20993;-75
2021/11/15 07:08:11;;;;;;;19.52;13.77;;;11.80;99.70;;;;;;5082053;28;20448;-76
2021/11/15 07:10:37;;;;;;;18.77;13.95;;;11.80;99.80;;;;;;5076144;28;20974;-72
2021/11/15 07:13:03;;;;;;;18.98;14.20;;;11.80;99.30;;;;;;5082065;28;20497;-74
2021/11/15 07:15:29;;;;;;;20.45;14.60;;;11.80;99.30;;;;;;5078788;28;21000;-73
2021/11/15 07:17:55;;;;;;;20.80;14.20;;;11.80;99.10;;;;;;5063178;28;20415;-72
2021/11/15 07:20:21;;;;;;;21.02;14.75;;;11.70;99.30;;;;;;5080103;28;20411;-73
2021/11/15 07:22:48;;;;;;;20.85;14.73;;;11.80;99.50;;;;;;5076884;28;20771;-73
2021/11/15 07:25:19;;;;;;;20.60;14.95;;;11.80;99.40;;;;;;5076633;28;20514;-72
2021/11/15 07:27:48;;;;;;;21.33;15.60;;;11.80;99.60;;;;;;5083011;28;20490;-71
2021/11/15 07:30:14;;;;;;;20.50;15.45;;;11.80;99.60;;;;;;5079005;28;20516;-72
2021/11/15 07:32:40;;;;;;;21.35;15.15;;;11.80;99.80;;;;;;5081474;28;20407;-71
2021/11/15 07:35:07;;;;;;;22.42;16.10;;;11.80;99.60;;;;;;5080392;28;20467;-73
2021/11/15 07:37:33;;;;;;;22.63;15.75;;;11.80;99.60;;;;;;5081746;28;20417;-72
2021/11/15 07:39:58;;;;;;;22.20;15.85;;;11.80;99.40;;;;;;5084566;28;20469;-72
2021/11/15 07:42:24;;;;;;;23.77;16.67;;;11.80;99.60;;;;;;5084835;28;20523;-74
2021/11/15 07:44:50;;;;;;;23.65;16.25;;;11.80;99.70;;;;;;5097789;28;20424;-71
2021/11/15 07:47:16;;;;;;;22.83;16.52;;;11.80;99.90;;;;;;5082070;28;20403;-71
2021/11/15 07:49:44;;;;;;;23.75;16.75;;;11.80;99.80;;;;;;5099762;28;20462;-71
2021/11/15 07:52:09;;;;;;;23.90;17.33;;;11.80;99.60;;;;;;5075588;28;20488;-74
2021/11/15 07:54:35;;;;;;;23.05;16.55;;;11.70;99.50;;;;;;5082232;28;20969;-72
2021/11/15 07:57:01;;;;;;;25.23;17.17;;;11.80;99.80;;;;;;5102413;28;20402;-73
2021/11/15 07:59:27;;;;;;;25.50;17.67;;;11.80;99.60;;;;;;5101574;28;20440;-72
2021/11/15 08:01:53;;;;;;;26.58;17.85;;;11.80;99.40;;;;;;5104022;28;20433;-74
2021/11/15 08:04:19;;;;;;;25.23;18.10;;;11.80;99.40;;;;;;5080317;28;20420;-71
2021/11/15 08:06:58;;;;;;;25.38;17.60;;;11.80;99.40;;;;;;5084199;28;20431;-74
2021/11/15 08:09:26;;;;;;;29.23;18.90;;;11.80;99.40;;;;;;5098230;28;20896;-74
2021/11/15 08:11:55;;;;;;;25.30;18.13;;;11.80;99.50;;;;;;5099966;28;20393;-73
2021/11/15 08:14:21;;;;;;;27.50;18.45;;;11.80;99.50;;;;;;5083170;28;20412;-74
2021/11/15 08:16:47;;;;;;;25.27;18.03;;;11.70;99.50;;;;;;5099286;28;20402;-73
2021/11/15 08:19:14;;;;;;;24.73;17.95;;;11.80;99.60;;;;;;5078621;28;20404;-75
2021/11/15 08:21:40;;;;;;;27.13;17.90;;;11.80;99.60;;;;;;5083706;28;20846;-72
2021/11/15 08:24:20;;;;;;;25.85;17.65;;;11.80;99.70;;;;;;5074558;28;20476;-72
2021/11/15 08:26:49;;;;;;;25.33;17.73;;;11.80;99.80;;;;;;5103126;28;20508;-72
2021/11/15 08:29:15;;;;;;;26.05;17.90;;;11.80;99.60;;;;;;5105274;28;20507;-74
2021/11/15 08:31:44;;;;;;;25.23;18.13;;;11.80;99.60;;;;;;5100620;28;20415;-74
2021/11/15 08:34:10;;;;;;;25.17;18.27;;;11.90;99.50;;;;;;5103443;28;20751;-74
2021/11/15 08:36:39;;;;;;;26.63;17.90;;;11.80;99.70;;;;;;5106214;28;20405;-73
2021/11/15 08:39:14;;;;;;;25.08;16.55;;;11.80;99.90;;;;;;5084034;28;20412;-74
2021/11/15 08:41:46;;;;;;;24.27;16.77;;;11.80;99.90;;;;;;5106221;28;20481;-74
2021/11/15 08:44:16;;;;;;;22.05;15.80;;;11.80;99.90;;;;;;5087762;28;20952;-75
2021/11/15 08:46:45;;;;;;;23.60;16.05;;;11.80;99.90;;;;;;5099503;28;20395;-73
2021/11/15 08:49:12;;;;;;;24.02;15.98;;;11.80;99.90;;;;;;5099959;28;21335;-73
2021/11/15 08:51:40;;;;;;;21.48;15.35;;;11.80;99.90;;;;;;5098114;28;20404;-72
2021/11/15 08:54:08;;;;;;;23.90;15.85;;;11.80;99.90;;;;;;5089356;28;20392;-73
2021/11/15 08:56:36;;;;;;;22.48;15.75;;;11.80;99.90;;;;;;5103860;28;20400;-74
2021/11/15 08:59:02;;;;;;;23.15;15.98;;;11.80;99.90;;;;;;5085645;28;20419;-73
2021/11/15 09:01:27;;;;;;;25.80;16.48;;;11.70;99.90;;;;;;5082026;28;20407;-73
2021/11/15 09:03:54;;;;;;;22.47;15.97;;;11.70;99.90;;;;;;5083616;28;20473;-73
2021/11/15 09:06:20;;;;;;;22.30;15.37;;;11.70;99.90;;;;;;5088573;28;20457;-73
2021/11/15 09:08:47;;;;;;;25.58;16.73;;;11.70;99.90;;;;;;5104198;28;20424;-73
2021/11/15 09:11:14;;;;;;;26.38;17.02;;;11.70;99.90;;;;;;5105386;28;20400;-73
2021/11/15 09:13:41;;;;;;;23.93;16.63;;;11.70;99.80;;;;;;5103969;28;20883;-73
2021/11/15 09:16:08;;;;;;;22.35;15.35;;;11.70;99.90;;;;;;5101145;28;20491;-72
2021/11/15 09:18:35;;;;;;;25.05;15.98;;;11.80;99.90;;;;;;5105328;28;20517;-72
2021/11/15 09:21:06;;;;;;;23.15;14.75;;;11.70;99.90;;;;;;5101006;28;20477;-74
2021/11/15 09:23:32;;;;;;;21.40;14.55;;;11.70;99.90;;;;;;5103765;28;20485;-73
2021/11/15 09:25:58;;;;;;;23.77;14.50;;;11.70;99.90;;;;;;5105789;28;20404;-74
2021/11/15 09:28:24;;;;;;;21.00;13.70;;;11.70;99.90;;;;;;5104266;28;20786;-74
2021/11/15 09:30:51;;;;;;;24.95;15.07;;;11.70;99.90;;;;;;5087841;28;20566;-72
2021/11/15 09:33:17;;;;;;;24.75;15.40;;;11.70;99.90;;;;;;5087716;28;20518;-73
2021/11/15 09:35:48;;;;;;;22.13;14.38;;;11.70;99.90;;;;;;5103935;28;20500;-74
2021/11/15 09:38:16;;;;;;;25.13;15.10;;;11.80;99.90;;;;;;5084577;28;20424;-73
2021/11/15 09:40:42;;;;;;;24.25;15.23;;;11.80;99.90;;;;;;5088425;28;20432;-72
2021/11/15 09:43:08;;;;;;;22.27;14.40;;;11.80;99.90;;;;;;5103851;28;22165;-73
2021/11/15 09:45:34;;;;;;;26.02;15.00;;;11.80;99.90;;;;;;5101910;28;20408;-73
2021/11/15 09:48:00;;;;;;;27.20;15.87;;;11.70;99.90;;;;;;5101386;28;20408;-73
2021/11/15 09:50:26;;;;;;;26.13;14.98;;;11.70;99.90;;;;;;5088348;28;20928;-71
2021/11/15 09:52:53;;;;;;;26.42;16.27;;;11.70;99.90;;;;;;5086694;28;20400;-72
2021/11/15 09:55:20;;;;;;;26.60;15.82;;;11.70;99.90;;;;;;5081228;28;22242;-70
2021/11/15 09:57:48;;;;;;;26.13;16.33;;;11.60;99.90;;;;;;5076304;28;20967;-72
2021/11/15 10:00:23;;;;;;;26.83;16.60;;;11.60;99.90;;;;;;5099836;28;20769;-72
2021/11/15 10:02:50;;;;;;;26.52;16.30;;;11.60;99.90;;;;;;5099705;28;20511;-75
2021/11/15 10:05:18;;;;;;;25.08;15.35;;;11.60;99.90;;;;;;5101022;28;20416;-74
2021/11/15 10:07:52;;;;;;;26.90;16.00;;;11.60;99.90;;;;;;5100422;28;20512;-73
2021/11/15 10:10:40;;;;;;;24.92;15.70;;;11.60;99.90;;;;;;5077163;28;20429;-71
2021/11/15 10:13:24;;;;;;;28.55;16.58;;;11.60;99.90;;;;;;5085667;28;20502;-73
2021/11/15 10:16:00;;;;;;;27.98;17.10;;;11.60;99.90;;;;;;5083118;28;21227;-73
2021/11/15 10:18:57;;;;;;;27.45;16.42;;;11.70;99.90;;;;;;5103405;28;20506;-72
2021/11/15 10:21:35;;;;;;;28.85;16.15;;;11.70;99.90;;;;;;5098507;28;20769;-72
2021/11/15 10:24:31;;;;;;;28.63;16.35;;;11.70;99.90;;;;;;5100543;28;20518;-71
2021/11/15 10:27:08;;;;;;;28.63;16.03;;;11.70;99.90;;;;;;5085748;28;20435;-70
2021/11/15 10:29:39;;;;;;;29.98;17.30;;;11.70;99.90;;;;;;5083938;28;20408;-71
2021/11/15 10:32:13;;;;;;;29.30;17.10;;;11.70;99.90;;;;;;5095035;28;20409;-72
2021/11/15 10:34:43;;;;;;;29.63;16.80;;;11.60;99.90;;;;;;5097860;28;20421;-71
2021/11/15 10:37:19;;;;;;;28.85;17.05;;;11.70;99.90;;;;;;5095284;28;20512;-71
2021/11/15 10:40:10;;;;;;;29.63;16.42;;;11.70;99.90;;;;;;5094440;28;20419;-72
2021/11/15 10:42:41;;;;;;;29.93;16.50;;;11.70;99.90;;;;;;5100322;28;20423;-70
2021/11/15 10:45:08;;;;;;;33.40;17.35;;;11.70;99.90;;;;;;5087501;28;20424;-72
2021/11/15 10:47:43;;;;;;;29.75;16.48;;;11.60;99.90;;;;;;5083253;28;20886;-72
2021/11/15 10:50:21;;;;;;;33.37;18.27;;;11.60;99.90;;;;;;5103985;28;20503;-71
2021/11/15 10:53:04;;;;;;;29.35;15.85;;;11.60;99.90;;;;;;5085063;28;20761;-71
2021/11/15 10:55:36;;;;;;;32.80;17.38;;;11.60;99.90;;;;;;5100671;28;20908;-71
2021/11/15 10:58:09;;;;;;;29.70;15.70;;;11.60;99.90;;;;;;5100344;28;20793;-72
2021/11/15 11:00:39;;;;;;;30.00;15.85;;;11.60;99.90;;;;;;5101771;28;20465;-72
2021/11/15 11:03:19;;;;;;;30.52;15.98;;;11.60;99.90;;;;;;5101260;28;20415;-73
2021/11/15 11:05:47;;;;;;;28.42;16.17;;;11.60;99.90;;;;;;5103148;28;20412;-73
2021/11/15 11:08:20;;;;;;;28.00;14.90;;;11.60;99.90;;;;;;5098421;28;20430;-73
2021/11/15 11:10:59;;;;;;;29.58;13.88;;;11.60;99.90;;;;;;5102017;28;20880;-73
2021/11/15 11:13:38;;;;;;;25.90;14.55;;;11.50;99.90;;;;;;5100963;28;20896;-72
2021/11/15 11:16:04;;;;;;;28.42;15.35;;;11.50;99.90;;;;;;5081449;28;20408;-73
2021/11/15 11:18:35;;;;;;;27.25;14.20;;;11.50;99.90;;;;;;5086379;28;20418;-73
2021/11/15 11:26:33;;;;;;;25.70;13.27;;;11.60;99.90;;;;;;5102559;28;20832;-73
2021/11/15 11:29:08;;;;;;;24.45;12.80;;;11.60;99.90;;;;;;5104898;28;20415;-73
2021/11/15 11:31:36;;;;;;;24.70;13.50;;;11.60;99.90;;;;;;5085273;28;20904;-73
2021/11/15 11:34:02;;;;;;;26.20;13.70;;;11.50;99.90;;;;;;5104321;28;20400;-75
2021/11/15 11:36:28;;;;;;;23.70;12.93;;;11.50;99.90;;;;;;5100825;28;20421;-74
2021/11/15 11:38:55;;;;;;;23.30;12.40;;;11.50;99.90;;;;;;5061215;28;20496;-74
2021/11/15 11:41:21;;;;;;;23.08;12.50;;;11.50;99.90;;;;;;5098915;28;20615;-73
2021/11/15 11:43:49;;;;;;;22.03;12.07;;;11.50;99.90;;;;;;5083686;28;20404;-73
2021/11/15 11:46:18;;;;;;;22.30;11.98;;;11.50;99.90;;;;;;5102023;28;20420;-73
2021/11/15 11:48:49;;;;;;;21.57;11.97;;;11.50;99.90;;;;;;5085451;28;20472;-74
2021/11/15 11:51:15;;;;;;;20.92;12.32;;;11.50;99.90;;;;;;5102385;28;20408;-73
2021/11/15 11:53:41;;;;;;;24.23;12.45;;;11.50;99.90;;;;;;5104214;28;20422;-73
2021/11/15 11:56:15;;;;;;;24.27;13.07;;;11.40;99.90;;;;;;5083630;28;20404;-72
2021/11/15 11:58:45;;;;;;;24.40;12.98;;;11.40;99.90;;;;;;5063967;28;20418;-72
2021/11/15 12:01:24;;;;;;;24.55;13.27;;;11.50;99.90;;;;;;5084793;28;20457;-73
2021/11/15 12:04:19;;;;;;;27.80;14.73;;;11.50;99.90;;;;;;5090140;28;20896;-74
2021/11/15 12:06:47;;;;;;;28.98;14.98;;;11.50;99.90;;;;;;5071603;28;20405;-72
2021/11/15 12:09:19;;;;;;;26.37;14.97;;;11.50;99.90;;;;;;5104084;28;20748;-72
2021/11/15 12:11:55;;;;;;;29.08;15.48;;;11.50;99.90;;;;;;5088536;28;20434;-73
2021/11/15 12:14:31;;;;;;;30.25;16.23;;;11.50;99.90;;;;;;5089587;28;20494;-72
2021/11/15 12:17:06;;;;;;;28.55;14.68;;;11.40;99.90;;;;;;5101076;28;20417;-73
2021/11/15 12:19:53;;;;;;;32.93;15.17;;;11.40;99.90;;;;;;5106365;28;20792;-73
2021/11/15 12:22:45;;;;;;;32.47;15.10;;;11.50;99.90;;;;;;5098771;28;20945;-72
2021/11/15 12:25:19;;;;;;;26.95;14.98;;;11.40;99.90;;;;;;5107225;28;20439;-73
2021/11/15 12:27:56;;;;;;;27.30;14.88;;;11.40;99.90;;;;;;5083999;28;20405;-73
2021/11/15 12:30:34;;;;;;;29.30;16.15;;;11.40;99.90;;;;;;5107100;28;20852;-73
2021/11/15 12:33:19;;;;;;;33.17;17.65;;;11.40;99.90;;;;;;5103048;28;20884;-71
2021/11/15 12:36:12;;;;;;;32.45;16.63;;;11.40;99.90;;;;;;5089531;28;20553;-72
2021/11/15 12:38:52;;;;;;;31.20;16.75;;;11.40;99.90;;;;;;5103947;28;20479;-74